KFHRCYWL

Guest
Details From KFHR - FRIDAY HARBOR
To CYWL - WILLIAMS LAKE
Flight Number -
Tags generated
Created
Modified
Stats Distance 223 nm / 414 km
Max Altitude 25,800 ft / 7,864 m
Waypoints 4
Social Downloads 1
Likes 0
Share VATSIM

Download

Looking for another format? Having issues loading an existing format? Contact us
Advertisement - Login to hide

Notes

Basic altitude profile: - Ascent Rate: 2500ft/min - Ascent Speed: 250kts - Cruise Altitude: 35000ft - Cruise Speed: 420kts - Descent Rate: 1500ft/min - Descent Speed: 250kts Options: - Use NATs: yes - Use PACOTS: yes - Use low airways: yes - Use high airways: yes

Route

KFHR GLACE V349 SEATN CYWL

ID Type Via Altitude Latitude Longitude Leg Dist Tot Dist Heading (true) Name
O KFHR APT - 0 ft / 0 m 48.52197˚ -123.02437˚ - 0 nm - FRIDAY HARBOR
GLACE FIX - 25,800 ft / 7,864 m 50.18961˚ -122.43086˚ 102 nm 102 nm 13° / 13° -
SEATN FIX V349 (AWY-LO) 17,000 ft / 5,182 m 50.70358˚ -122.36725˚ 30 nm 133 nm 4° / 5° -
O CYWL APT - 0 ft / 0 m 52.18250˚ -122.05348˚ 89 nm 223 nm 7° / 8° WILLIAMS LAKE

Altitude Profile

Advertisement - Login to hide

Weather


0- 5 10 15 20 25 30 35+ Temperature / ° C

Clouds and Precipitation
Forecast for 2018-05-26 00:00 UTC. Updated 6 hours ago

Ground ~20,000 ft ~40,000 ft Winds

KFHR

Details ICAO KFHR (FRD)
Name FRIDAY HARBOR
Region United States
Timezone America/Los_Angeles (UTC-7.0)
Stats Elevation 113 ft / 34 m (AMSL)
Location 48.521966° -123.024368°
Runways 1
Magnetic Variation 16.006° E

METAR

KFHR 260453Z AUTO 25007KT 10SM BKN100 12/06 A3002 RMK AO2 SLP165 T01170056 TSNO

Decode

TAF

Not found

Departure Runways

ID Width Length Bearing (true) Bearing (mag) Surface Threshold Offset Overrun Length
16 75 ft / 23 m 3,402 ft / 1,037 m 177.06° 161.05° Asphalt 0 ft / 0 m 0 ft / 0 m
34 75 ft / 23 m 3,402 ft / 1,037 m 357.06° 341.05° Asphalt 0 ft / 0 m 0 ft / 0 m

CYWL

Details ICAO CYWL (YWL)
Name WILLIAMS LAKE
Region Canada
Timezone America/Vancouver (UTC-7.0)
Stats Elevation 3,085 ft / 940 m (AMSL)
Location 52.182502° -122.053475°
Runways 1
Magnetic Variation 16.727° E

METAR

CYWL 260500Z 34008KT 15SM FEW065 FEW120 09/05 A2992 RMK CU1AC1 CU TR AC TR SLP139 DENSITY ALT 3100FT

Decode

TAF

TAF CYWL 260038Z 2601/2613 30010G20KT P6SM SCT070 BKN120 TEMPO 2601/2603 P6SM -SHRA BKN070 FM260300 30010G20KT P6SM SCT070 FM260900 20005KT P6SM FEW050 RMK NXT FCST BY 260700Z

Decode

Destination Runways

ID Width Length Bearing (true) Bearing (mag) Surface Threshold Offset Overrun Length
11 150 ft / 46 m 6,913 ft / 2,107 m 134.72° 117.99° Asphalt 0 ft / 0 m 300 ft / 91 m
29 150 ft / 46 m 6,913 ft / 2,107 m 314.74° 298.01° Asphalt 0 ft / 0 m 300 ft / 91 m